createdAt,value
2018-03-07T00:02:55.281Z,92819.27
2018-03-07T00:05:58.556Z,92819.70
2018-03-07T00:09:02.354Z,92823.97
2018-03-07T00:12:06.391Z,92822.06
2018-03-07T00:15:09.674Z,92821.08
2018-03-07T00:18:12.945Z,92821.45
2018-03-07T00:21:16.973Z,92825.33
2018-03-07T00:24:21.014Z,92829.65
2018-03-07T00:27:24.391Z,92831.13
2018-03-07T00:30:27.669Z,92839.07
2018-03-07T00:33:31.699Z,92838.40
2018-03-07T00:36:35.812Z,92836.86
2018-03-07T00:39:39.989Z,92837.02
2018-03-07T00:42:43.300Z,92842.14
2018-03-07T00:45:46.674Z,92840.38
2018-03-07T00:48:49.951Z,92843.87
2018-03-07T00:51:53.232Z,92849.56
2018-03-07T00:54:57.353Z,92843.66
2018-03-07T00:58:00.631Z,92849.05
2018-03-07T01:01:04.693Z,92844.52
2018-03-07T01:04:08.373Z,92845.31
2018-03-07T01:07:11.652Z,92847.53
2018-03-07T01:10:16.952Z,92847.78
2018-03-07T01:13:20.253Z,92846.88
2018-03-07T01:16:23.524Z,92846.72
2018-03-07T01:19:26.903Z,92848.66
2018-03-07T01:22:31.135Z,92848.98
2018-03-07T01:25:34.401Z,92841.77
2018-03-07T01:28:38.434Z,92845.32
2018-03-07T01:31:42.470Z,92843.13
2018-03-07T01:34:47.740Z,92844.97
2018-03-07T01:37:51.111Z,92846.88
2018-03-07T01:40:54.415Z,92844.58
2018-03-07T01:43:57.709Z,92844.09
2018-03-07T01:47:01.016Z,92839.39
2018-03-07T01:50:04.387Z,92832.78
2018-03-07T01:53:07.881Z,92833.95
2018-03-07T01:56:11.921Z,92837.99
2018-03-07T01:59:15.180Z,92833.05
2018-03-07T02:02:19.220Z,92830.69
2018-03-07T02:05:29.366Z,92830.99
2018-03-07T02:18:37.551Z,92840.25
2018-03-07T02:21:40.812Z,92838.56
2018-03-07T02:24:44.154Z,92841.07
2018-03-07T02:27:48.197Z,92839.55
2018-03-07T02:30:51.567Z,92839.27
2018-03-07T02:33:54.863Z,92828.22
2018-03-07T02:36:58.182Z,92828.14
2018-03-07T02:40:01.454Z,92832.81
2018-03-07T02:43:05.485Z,92834.06
2018-03-07T02:46:08.765Z,92836.22
2018-03-07T02:49:12.018Z,92836.28
2018-03-07T02:52:15.288Z,92834.48
2018-03-07T02:55:19.501Z,92839.26
2018-03-07T02:58:22.769Z,92843.41
2018-03-07T03:01:26.802Z,92844.83
2018-03-07T03:04:30.065Z,92842.86
2018-03-07T03:07:33.357Z,92843.52
2018-03-07T03:10:36.613Z,92851.11
2018-03-07T03:13:39.878Z,92851.39
2018-03-07T03:16:43.165Z,92847.23
2018-03-07T03:19:47.192Z,92848.02
2018-03-07T03:22:50.839Z,92851.63
2018-03-07T03:25:54.077Z,92851.22
2018-03-07T03:28:58.124Z,92857.77
2018-03-07T03:32:01.470Z,92854.80
2018-03-07T03:35:04.776Z,92863.08
2018-03-07T03:38:08.077Z,92855.38
2018-03-07T03:41:11.345Z,92858.38
2018-03-07T03:44:14.598Z,92864.23
2018-03-07T03:47:17.862Z,92859.63
2018-03-07T03:50:21.155Z,92860.20
2018-03-07T03:53:24.417Z,92858.37
2018-03-07T03:56:27.684Z,92857.33
2018-03-07T03:59:30.949Z,92862.02
2018-03-07T04:02:34.216Z,92867.95
2018-03-07T04:05:37.485Z,92869.53
2018-03-07T04:08:40.775Z,92876.26
2018-03-07T04:11:44.260Z,92873.80
2018-03-07T04:14:48.298Z,92875.00
2018-03-07T04:17:51.574Z,92875.84
2018-03-07T04:20:56.011Z,92880.92
2018-03-07T04:24:00.045Z,92877.70
2018-03-07T04:27:03.338Z,92883.64
2018-03-07T04:30:06.597Z,92882.27
2018-03-07T04:33:10.657Z,92883.86
2018-03-07T04:36:13.929Z,92883.11
2018-03-07T04:39:17.193Z,92892.70
2018-03-07T04:42:21.722Z,92896.53
2018-03-07T04:45:24.986Z,92895.77
2018-03-07T04:48:28.237Z,92896.47
2018-03-07T04:51:32.304Z,92896.06
2018-03-07T04:54:35.569Z,92896.05
2018-03-07T04:57:41.445Z,92908.62
2018-03-07T05:00:44.713Z,92908.24
2018-03-07T05:03:47.988Z,92909.55
2018-03-07T05:06:51.625Z,92907.29
2018-03-07T05:09:54.887Z,92908.84
2018-03-07T05:12:58.158Z,92912.59
2018-03-07T05:16:01.409Z,92918.27
2018-03-07T05:19:05.526Z,92913.73
2018-03-07T05:22:09.559Z,92918.18
2018-03-07T05:25:12.955Z,92918.02
2018-03-07T05:28:16.268Z,92927.84
2018-03-07T05:31:19.522Z,92923.57
2018-03-07T05:34:23.564Z,92931.58
2018-03-07T05:37:27.501Z,92931.31
2018-03-07T05:40:30.768Z,92942.13
2018-03-07T05:43:34.056Z,92934.59
2018-03-07T05:46:38.118Z,92941.37
2018-03-07T05:49:41.474Z,92940.60
2018-03-07T05:52:45.518Z,92948.01
2018-03-07T05:55:48.839Z,92949.16
2018-03-07T05:58:52.109Z,92949.16
2018-03-07T06:01:55.372Z,92966.82
2018-03-07T06:04:59.417Z,92966.74
2018-03-07T06:08:02.737Z,92961.98
2018-03-07T06:11:06.173Z,92967.86
2018-03-07T06:14:09.660Z,92970.67
2018-03-07T06:17:12.931Z,92974.69
2018-03-07T06:20:17.080Z,92975.11
2018-03-07T06:23:20.352Z,92976.97
2018-03-07T06:26:23.900Z,92985.50
2018-03-07T06:29:28.079Z,92989.50
2018-03-07T06:32:31.379Z,92994.33
2018-03-07T06:35:34.836Z,93000.53
2018-03-07T06:38:38.175Z,92999.51
2018-03-07T06:41:41.506Z,93006.50
2018-03-07T06:44:44.887Z,93012.73
2018-03-07T06:47:48.300Z,93016.14
2018-03-07T06:50:51.745Z,93023.71
2018-03-07T06:53:55.074Z,93030.44
2018-03-07T06:56:58.397Z,93037.96
2018-03-07T07:00:01.767Z,93034.61
2018-03-07T07:03:05.027Z,93038.83
2018-03-07T07:06:09.128Z,93038.31
2018-03-07T07:09:15.159Z,93044.43
2018-03-07T07:12:18.516Z,93050.75
2018-03-07T07:15:21.810Z,93066.77
2018-03-07T07:18:26.780Z,93064.92
2018-03-07T07:21:30.109Z,93065.13
2018-03-07T07:24:33.419Z,93071.27
2018-03-07T07:27:36.849Z,93071.33
2018-03-07T07:30:40.121Z,93082.46
2018-03-07T07:33:45.489Z,93082.56
2018-03-07T07:36:48.825Z,93089.79
2018-03-07T07:39:52.085Z,93079.59
2018-03-07T07:42:55.364Z,93097.19
2018-03-07T07:45:59.477Z,93097.14
2018-03-07T07:49:02.792Z,93102.13
2018-03-07T07:52:06.859Z,93099.48
2018-03-07T07:55:10.135Z,93099.80
2018-03-07T07:58:13.405Z,93095.45
2018-03-07T08:01:16.708Z,93106.36
2018-03-07T08:04:19.961Z,93107.65
2018-03-07T08:07:23.236Z,93118.65
2018-03-07T08:10:26.529Z,93122.05
2018-03-07T08:13:29.785Z,93124.33
2018-03-07T08:16:33.069Z,93125.85
2018-03-07T08:19:36.397Z,93123.73
2018-03-07T08:22:39.652Z,93142.67
2018-03-07T08:25:42.929Z,93144.60
2018-03-07T08:28:47.824Z,93143.78
2018-03-07T08:31:51.084Z,93148.83
2018-03-07T08:34:54.409Z,93146.55
2018-03-07T08:37:57.710Z,93153.45
2018-03-07T08:41:01.926Z,93153.00
2018-03-07T08:44:06.049Z,93156.81
2018-03-07T08:47:09.321Z,93159.45
2018-03-07T08:50:12.881Z,93162.98
2018-03-07T08:53:16.225Z,93155.25
2018-03-07T08:56:19.517Z,93163.01
2018-03-07T08:59:23.108Z,93167.50
2018-03-07T09:02:26.385Z,93167.55
2018-03-07T09:05:29.637Z,93172.75
2018-03-07T09:08:33.718Z,93174.39
2018-03-07T09:11:37.070Z,93180.34
2018-03-07T09:14:40.369Z,93181.22
2018-03-07T09:17:43.656Z,93181.48
2018-03-07T09:20:46.922Z,93185.78
2018-03-07T09:23:50.975Z,93190.70
2018-03-07T09:26:54.880Z,93187.37
2018-03-07T09:29:58.200Z,93190.86
2018-03-07T09:33:01.468Z,93199.82
2018-03-07T09:36:04.741Z,93191.44
2018-03-07T09:39:08.068Z,93203.81
2018-03-07T09:42:12.110Z,93207.75
2018-03-07T09:45:15.379Z,93210.13
2018-03-07T09:48:19.010Z,93213.20
2018-03-07T09:51:22.274Z,93213.65
2018-03-07T09:54:26.321Z,93214.02
2018-03-07T09:57:29.693Z,93223.34
2018-03-07T10:00:32.949Z,93224.28
2018-03-07T10:03:36.217Z,93228.95
2018-03-07T10:06:39.484Z,93222.13
2018-03-07T10:09:43.566Z,93226.61
2018-03-07T10:12:47.843Z,93231.88
2018-03-07T10:15:51.112Z,93228.30
2018-03-07T10:18:55.300Z,93234.23
2018-03-07T10:21:58.563Z,93232.87
2018-03-07T10:25:01.836Z,93236.48
2018-03-07T10:28:05.093Z,93231.66
2018-03-07T10:31:08.352Z,93226.87
2018-03-07T10:34:12.337Z,93230.28
2018-03-07T10:37:16.088Z,93240.75
2018-03-07T10:40:21.776Z,93236.64
2018-03-07T10:43:25.817Z,93240.61
2018-03-07T10:46:29.105Z,93246.64
2018-03-07T10:49:33.125Z,93247.63
2018-03-07T10:52:36.377Z,93258.73
2018-03-07T10:55:39.728Z,93254.57
2018-03-07T10:58:42.997Z,93251.57
2018-03-07T11:01:47.028Z,93255.72
2018-03-07T11:04:51.868Z,93256.23
2018-03-07T11:07:55.582Z,93259.98
2018-03-07T11:10:58.876Z,93257.18
2018-03-07T11:14:02.129Z,93264.69
2018-03-07T11:17:05.394Z,93259.95
2018-03-07T11:20:08.685Z,93270.91
2018-03-07T11:23:11.963Z,93275.53
2018-03-07T11:26:15.230Z,93273.55
2018-03-07T11:29:19.334Z,93268.08
2018-03-07T11:32:23.373Z,93265.87
2018-03-07T11:35:27.407Z,93270.95
2018-03-07T11:38:30.674Z,93262.77
2018-03-07T11:41:34.726Z,93258.04
2018-03-07T11:44:37.984Z,93265.22
2018-03-07T11:47:42.013Z,93259.80
2018-03-07T11:50:46.070Z,93263.23
2018-03-07T11:53:49.330Z,93263.38
2018-03-07T11:56:52.732Z,93261.27
2018-03-07T11:59:56.766Z,93264.97
2018-03-07T12:03:00.150Z,93275.71
2018-03-07T12:06:03.424Z,93277.01
2018-03-07T12:09:07.652Z,93277.78
2018-03-07T12:12:10.928Z,93272.96
2018-03-07T12:15:15.692Z,93274.95
2018-03-07T12:18:18.976Z,93280.47
2018-03-07T12:21:22.990Z,93270.83
2018-03-07T12:24:27.035Z,93275.22
2018-03-07T12:27:30.376Z,93268.84
2018-03-07T12:30:33.618Z,93257.58
2018-03-07T12:33:36.897Z,93264.99
2018-03-07T12:36:41.171Z,93270.74
2018-03-07T12:39:44.428Z,93272.03
2018-03-07T12:42:47.708Z,93276.05
2018-03-07T12:45:51.778Z,93271.90
2018-03-07T12:48:55.046Z,93275.62
2018-03-07T12:51:59.091Z,93266.13
2018-03-07T12:55:02.358Z,93272.27
2018-03-07T12:58:05.628Z,93269.89
2018-03-07T13:01:08.945Z,93275.66
2018-03-07T13:04:13.007Z,93278.66
2018-03-07T13:07:17.117Z,93289.69
2018-03-07T13:10:24.505Z,93280.32
2018-03-07T13:13:27.785Z,93289.02
2018-03-07T13:16:31.296Z,93288.87
2018-03-07T13:19:34.772Z,93287.48
2018-03-07T13:22:38.863Z,93289.52
2018-03-07T13:25:42.124Z,93290.41
2018-03-07T13:28:45.471Z,93291.22
2018-03-07T13:31:48.759Z,93303.84
2018-03-07T13:34:55.133Z,93301.08
2018-03-07T13:37:59.264Z,93299.16
2018-03-07T13:41:03.371Z,93309.30
2018-03-07T13:44:09.372Z,93309.92
2018-03-07T13:47:12.642Z,93321.72
2018-03-07T13:50:16.688Z,93320.97
2018-03-07T13:53:19.956Z,93314.80
2018-03-07T13:56:25.657Z,93318.55
2018-03-07T13:59:30.449Z,93316.11
2018-03-07T14:02:35.481Z,93316.99
2018-03-07T14:05:40.231Z,93322.53
2018-03-07T14:08:45.712Z,93322.73
2018-03-07T14:11:49.295Z,93320.12
2018-03-07T14:14:52.605Z,93313.86
2018-03-07T14:17:55.892Z,93326.91
2018-03-07T14:20:59.173Z,93324.58
2018-03-07T14:24:03.221Z,93325.66
2018-03-07T14:27:07.518Z,93326.88
2018-03-07T14:30:11.281Z,93330.93
2018-03-07T14:33:15.995Z,93326.25
2018-03-07T14:36:20.496Z,93323.20
2018-03-07T14:39:24.462Z,93332.43
2018-03-07T14:42:28.226Z,93330.99
2018-03-07T14:45:32.396Z,93337.93
2018-03-07T14:48:35.729Z,93343.31
2018-03-07T14:51:53.914Z,93341.31
2018-03-07T14:54:57.551Z,93354.03
2018-03-07T14:58:00.819Z,93343.53
2018-03-07T15:01:04.256Z,93356.62
2018-03-07T15:04:09.227Z,93354.31
2018-03-07T15:07:13.518Z,93355.52
2018-03-07T15:10:17.009Z,93359.70
2018-03-07T15:13:21.309Z,93357.36
2018-03-07T15:16:25.058Z,93361.66
2018-03-07T15:19:29.960Z,93365.58
2018-03-07T15:22:33.249Z,93361.18
2018-03-07T15:25:36.557Z,93362.92
2018-03-07T15:28:39.848Z,93365.31
2018-03-07T15:31:43.146Z,93373.31
2018-03-07T15:34:46.429Z,93368.25
2018-03-07T15:37:49.689Z,93373.53
2018-03-07T15:40:53.110Z,93371.81
2018-03-07T15:43:57.761Z,93375.93
2018-03-07T15:47:01.152Z,93376.81
2018-03-07T15:50:05.969Z,93384.37
2018-03-07T15:53:10.801Z,93390.92
2018-03-07T15:56:14.346Z,93389.88
2018-03-07T15:59:17.785Z,93393.52
2018-03-07T16:02:21.048Z,93390.90
2018-03-07T16:05:24.430Z,93393.54
2018-03-07T16:08:28.465Z,93398.63
2018-03-07T16:11:31.773Z,93396.45
2018-03-07T16:14:35.057Z,93404.88
2018-03-07T16:17:38.446Z,93410.16
2018-03-07T16:20:42.481Z,93405.39
2018-03-07T16:23:47.276Z,93415.49
2018-03-07T16:26:52.083Z,93419.79
2018-03-07T16:29:55.329Z,93423.27
2018-03-07T16:32:59.401Z,93428.25
2018-03-07T16:36:04.191Z,93430.03
2018-03-07T16:39:07.437Z,93428.85
2018-03-07T16:42:10.701Z,93436.38
2018-03-07T16:45:13.972Z,93437.81
2018-03-07T16:48:17.257Z,93444.13
2018-03-07T16:51:21.295Z,93454.73
2018-03-07T16:54:24.549Z,93451.20
2018-03-07T16:57:27.810Z,93457.06
2018-03-07T17:00:31.060Z,93460.45
2018-03-07T17:03:35.133Z,93459.38
2018-03-07T17:06:38.517Z,93461.53
2018-03-07T17:09:41.770Z,93463.66
2018-03-07T17:12:45.124Z,93464.97
2018-03-07T17:15:48.512Z,93472.27
2018-03-07T17:18:51.796Z,93469.92
2018-03-07T17:21:55.110Z,93476.37
2018-03-07T17:24:58.369Z,93482.57
2018-03-07T17:28:02.395Z,93488.09
2018-03-07T17:31:05.788Z,93490.47
2018-03-07T17:34:09.800Z,93495.69
2018-03-07T17:37:13.888Z,93500.95
2018-03-07T17:40:17.217Z,93505.98
2018-03-07T17:43:20.517Z,93508.72
2018-03-07T17:46:23.773Z,93513.23
2018-03-07T17:49:27.041Z,93512.30
2018-03-07T17:52:30.320Z,93515.97
2018-03-07T17:55:33.576Z,93527.05
2018-03-07T17:58:36.835Z,93526.42
2018-03-07T18:01:47.389Z,93533.24
2018-03-07T18:04:50.634Z,93535.41
2018-03-07T18:07:53.904Z,93530.73
2018-03-07T18:10:57.161Z,93536.61
2018-03-07T18:14:00.433Z,93546.27
2018-03-07T18:17:03.688Z,93547.80
2018-03-07T18:20:07.019Z,93549.66
2018-03-07T18:23:11.064Z,93556.31
2018-03-07T18:26:14.540Z,93556.75
2018-03-07T18:29:17.801Z,93556.30
2018-03-07T18:32:21.084Z,93560.02
2018-03-07T18:35:24.560Z,93559.48
2018-03-07T18:38:27.834Z,93563.70
2018-03-07T18:41:31.097Z,93563.99
2018-03-07T18:44:34.356Z,93565.34
2018-03-07T18:47:37.633Z,93561.91
2018-03-07T18:50:41.645Z,93566.41
2018-03-07T18:53:45.675Z,93567.27
2018-03-07T18:56:49.734Z,93571.83
2018-03-07T18:59:53.029Z,93575.48
2018-03-07T19:02:56.286Z,93570.33
2018-03-07T19:06:00.364Z,93570.61
2018-03-07T19:09:05.568Z,93576.26
2018-03-07T19:12:08.886Z,93587.20
2018-03-07T19:15:12.311Z,93588.51
2018-03-07T19:18:16.348Z,93591.35
2018-03-07T19:21:20.378Z,93592.67
2018-03-07T19:24:24.410Z,93595.34
2018-03-07T19:27:27.670Z,93595.47
2018-03-07T19:30:31.086Z,93603.29
2018-03-07T19:33:35.191Z,93609.50
2018-03-07T19:36:39.209Z,93614.56
2018-03-07T19:39:43.232Z,93613.28
2018-03-07T19:42:47.301Z,93621.02
2018-03-07T19:45:50.580Z,93624.62
2018-03-07T19:48:53.848Z,93629.45
2018-03-07T19:51:57.143Z,93628.64
2018-03-07T19:55:00.400Z,93624.84
2018-03-07T19:58:03.672Z,93628.27
2018-03-07T20:01:06.930Z,93632.89
2018-03-07T20:04:10.973Z,93634.80
2018-03-07T20:07:14.269Z,93638.22
2018-03-07T20:10:17.523Z,93642.86
2018-03-07T20:13:21.553Z,93648.33
2018-03-07T20:16:25.665Z,93648.80
2018-03-07T20:19:29.757Z,93650.16
2018-03-07T20:22:33.013Z,93652.70
2018-03-07T20:25:36.282Z,93653.64
2018-03-07T20:28:40.302Z,93651.72
2018-03-07T20:31:44.326Z,93653.80
2018-03-07T20:34:47.623Z,93660.91
2018-03-07T20:38:04.733Z,93665.24
2018-03-07T20:41:08.761Z,93673.54
2018-03-07T20:44:13.220Z,93671.59
2018-03-07T20:47:16.513Z,93675.16
2018-03-07T20:50:21.435Z,93682.11
2018-03-07T20:53:30.210Z,93687.88
2018-03-07T20:56:33.661Z,93691.91
2018-03-07T20:59:37.577Z,93689.94
2018-03-07T21:02:40.836Z,93690.48
2018-03-07T21:05:44.136Z,93698.92
2018-03-07T21:08:47.473Z,93698.91
2018-03-07T21:11:50.733Z,93702.31
2018-03-07T21:14:54.847Z,93713.56
2018-03-07T21:17:58.177Z,93703.25
2018-03-07T21:21:01.456Z,93703.41
2018-03-07T21:24:05.557Z,93706.42
2018-03-07T21:27:10.332Z,93718.33
2018-03-07T21:30:14.129Z,93719.09
2018-03-07T21:33:18.157Z,93724.20
2018-03-07T21:36:21.478Z,93715.43
2018-03-07T21:39:24.751Z,93712.34
2018-03-07T21:42:28.001Z,93722.27
2018-03-07T21:45:31.435Z,93721.91
2018-03-07T21:48:35.473Z,93734.96
2018-03-07T21:51:38.847Z,93735.61
2018-03-07T21:54:42.878Z,93739.31
2018-03-07T21:57:46.167Z,93744.88
2018-03-07T22:00:50.200Z,93741.25
2018-03-07T22:03:53.471Z,93746.45
2018-03-07T22:06:57.496Z,93756.48
2018-03-07T22:10:01.523Z,93752.85
2018-03-07T22:13:04.816Z,93761.83
2018-03-07T22:16:08.072Z,93762.38
2018-03-07T22:19:12.100Z,93762.45
2018-03-07T22:22:16.231Z,93773.64
2018-03-07T22:25:20.259Z,93774.52
2018-03-07T22:28:23.540Z,93781.84
2018-03-07T22:31:26.850Z,93783.77
2018-03-07T22:34:30.186Z,93790.02
2018-03-07T22:37:33.437Z,93788.27
2018-03-07T22:40:37.469Z,93787.65
2018-03-07T22:43:40.733Z,93792.90
2018-03-07T22:46:44.795Z,93802.36
2018-03-07T22:49:48.116Z,93800.61
2018-03-07T22:52:51.465Z,93810.72
2018-03-07T22:55:54.725Z,93807.86
2018-03-07T22:58:59.504Z,93805.33
2018-03-07T23:02:02.770Z,93822.61
2018-03-07T23:05:06.810Z,93825.72
2018-03-07T23:08:10.120Z,93837.34
2018-03-07T23:11:14.150Z,93834.19
2018-03-07T23:14:17.624Z,93837.42
2018-03-07T23:17:20.900Z,93846.54
2018-03-07T23:20:24.937Z,93853.70
2018-03-07T23:23:28.189Z,93855.03
2018-03-07T23:26:31.531Z,93856.56
2018-03-07T23:29:34.926Z,93858.18
2018-03-07T23:32:38.966Z,93864.60
2018-03-07T23:35:42.345Z,93863.83
2018-03-07T23:38:45.633Z,93871.16
2018-03-07T23:41:49.701Z,93876.02
2018-03-07T23:44:52.958Z,93879.34
2018-03-07T23:47:56.331Z,93883.33
2018-03-07T23:51:00.354Z,93884.58
2018-03-07T23:54:04.386Z,93881.88
2018-03-07T23:57:07.652Z,93887.19
